createdAt,value
2023-04-05T00:00:11.425Z,42.90
2023-04-05T00:03:05.540Z,43.33
2023-04-05T00:05:39.587Z,38.08
2023-04-05T00:08:13.698Z,39.97
2023-04-05T00:10:44.381Z,39.92
2023-04-05T00:13:13.150Z,41.10
2023-04-05T00:15:42.982Z,49.70
2023-04-05T00:18:22.064Z,43.05
2023-04-05T00:20:52.563Z,45.22
2023-04-05T00:23:26.957Z,47.78
2023-04-05T00:25:56.197Z,48.45
2023-04-05T00:28:27.220Z,48.08
2023-04-05T00:30:55.327Z,45.67
2023-04-05T00:33:32.338Z,45.67
2023-04-05T00:36:19.312Z,47.22
2023-04-05T00:38:50.286Z,45.13
2023-04-05T00:41:18.763Z,54.75
2023-04-05T00:43:47.495Z,45.05
2023-04-05T00:46:22.439Z,46.78
2023-04-05T00:48:51.318Z,44.83
2023-04-05T00:51:25.297Z,55.78
2023-04-05T00:53:53.549Z,47.33
2023-04-05T00:56:22.062Z,47.03
2023-04-05T00:58:52.442Z,43.92
2023-04-05T01:01:22.600Z,45.70
2023-04-05T01:03:54.216Z,46.15
2023-04-05T01:06:51.902Z,47.38
2023-04-05T01:09:41.313Z,47.97
2023-04-05T01:12:12.545Z,49.30
2023-04-05T01:14:50.434Z,51.70
2023-04-05T01:17:30.202Z,53.30
2023-04-05T01:20:01.031Z,56.75
2023-04-05T01:23:00.855Z,49.08
2023-04-05T01:25:54.920Z,56.00
2023-04-05T01:28:31.981Z,56.20
2023-04-05T01:31:17.121Z,52.42
2023-04-05T01:33:48.450Z,56.17
2023-04-05T01:36:33.369Z,53.08
2023-04-05T01:39:05.617Z,53.35
2023-04-05T01:41:34.346Z,56.70
2023-04-05T01:44:06.209Z,52.67
2023-04-05T01:46:35.357Z,54.90
2023-04-05T01:49:05.536Z,58.40
2023-04-05T01:51:33.888Z,53.00
2023-04-05T01:54:02.254Z,50.53
2023-04-05T01:56:30.438Z,55.03
2023-04-05T01:58:58.357Z,46.10
2023-04-05T02:01:29.314Z,52.15
2023-04-05T02:04:00.132Z,42.00
2023-04-05T02:06:38.632Z,48.35
2023-04-05T02:11:37.450Z,42.42
2023-04-05T02:14:11.081Z,43.10
2023-04-05T02:16:39.923Z,45.25
2023-04-05T02:19:08.119Z,45.13
2023-04-05T02:21:41.075Z,42.75
2023-04-05T02:24:10.256Z,45.63
2023-04-05T02:26:40.463Z,39.08
2023-04-05T02:29:08.596Z,43.50
2023-04-05T02:31:36.766Z,44.08
2023-04-05T02:34:06.021Z,47.00
2023-04-05T02:36:35.938Z,49.58
2023-04-05T02:39:06.322Z,42.95
2023-04-05T02:41:36.695Z,50.70
2023-04-05T02:44:05.152Z,48.33
2023-04-05T02:46:33.179Z,52.55
2023-04-05T02:49:02.976Z,55.63
2023-04-05T02:51:37.119Z,57.92
2023-04-05T02:54:09.415Z,56.17
2023-04-05T02:56:41.163Z,63.75
2023-04-05T02:59:14.973Z,60.60
2023-04-05T03:01:46.102Z,59.90
2023-04-05T03:04:28.264Z,57.95
2023-04-05T03:07:05.060Z,54.67
2023-04-05T03:09:39.732Z,56.92
2023-04-05T03:12:10.505Z,49.20
2023-04-05T03:14:44.433Z,49.20
2023-04-05T03:17:18.341Z,49.25
2023-04-05T03:19:53.377Z,42.63
2023-04-05T03:22:25.208Z,48.22
2023-04-05T03:24:54.129Z,45.92
2023-04-05T03:27:29.380Z,56.42
2023-04-05T03:30:03.545Z,53.00
2023-04-05T03:32:57.427Z,49.17
2023-04-05T03:35:58.623Z,56.83
2023-04-05T03:38:32.611Z,59.03
2023-04-05T03:41:13.887Z,52.45
2023-04-05T03:43:43.343Z,49.20
2023-04-05T03:46:16.826Z,45.30
2023-04-05T03:48:45.434Z,47.33
2023-04-05T03:51:13.847Z,36.95
2023-04-05T03:53:45.505Z,40.03
2023-04-05T03:56:15.957Z,38.78
2023-04-05T03:58:47.479Z,40.10
2023-04-05T04:01:19.554Z,36.83
2023-04-05T04:03:47.916Z,33.85
2023-04-05T04:06:18.760Z,36.55
2023-04-05T04:08:51.876Z,38.17
2023-04-05T04:11:20.121Z,36.25
2023-04-05T04:13:49.949Z,32.28
2023-04-05T04:16:38.519Z,34.10
2023-04-05T04:19:39.334Z,33.17
2023-04-05T04:22:20.788Z,38.25
2023-04-05T04:25:27.087Z,36.60
2023-04-05T04:28:10.878Z,33.72
2023-04-05T04:31:09.372Z,34.58
2023-04-05T04:33:50.242Z,35.25
2023-04-05T04:36:37.611Z,34.22
2023-04-05T04:39:39.897Z,37.08
2023-04-05T04:42:25.936Z,32.42
2023-04-05T04:45:17.140Z,37.15
2023-04-05T04:47:54.080Z,30.25
2023-04-05T04:50:55.119Z,28.40
2023-04-05T04:53:27.500Z,33.97
2023-04-05T04:55:59.623Z,29.17
2023-04-05T04:58:31.875Z,32.28
2023-04-05T05:01:10.292Z,34.38
2023-04-05T05:03:40.582Z,29.75
2023-04-05T05:06:09.509Z,31.00
2023-04-05T05:08:37.798Z,31.75
2023-04-05T05:11:07.577Z,28.48
2023-04-05T05:13:38.922Z,33.80
2023-04-05T05:16:09.371Z,33.50
2023-04-05T05:18:48.259Z,32.22
2023-04-05T05:21:16.702Z,33.70
2023-04-05T05:24:05.193Z,35.95
2023-04-05T05:27:44.327Z,34.97
2023-04-05T05:34:25.866Z,29.55
2023-04-05T05:37:33.950Z,27.00
2023-04-05T05:40:07.871Z,32.42
2023-04-05T05:42:40.676Z,29.02
2023-04-05T05:45:13.196Z,30.02
2023-04-05T05:47:46.152Z,29.88
2023-04-05T05:50:16.637Z,30.85
2023-04-05T05:52:45.683Z,32.22
2023-04-05T05:55:15.809Z,33.33
2023-04-05T05:57:44.436Z,30.38
2023-04-05T06:00:13.182Z,24.08
2023-04-05T06:03:04.790Z,32.22
2023-04-05T06:05:35.844Z,30.65
2023-04-05T06:08:05.264Z,26.17
2023-04-05T06:14:15.074Z,33.47
2023-04-05T06:16:44.394Z,26.80
2023-04-05T06:19:14.885Z,28.70
2023-04-05T06:21:48.178Z,29.67
2023-04-05T06:24:18.041Z,28.45
2023-04-05T06:31:03.733Z,32.17
2023-04-05T06:33:32.897Z,31.20
2023-04-05T06:36:01.318Z,27.80
2023-04-05T06:38:32.152Z,23.15
2023-04-05T06:41:23.801Z,29.35
2023-04-05T06:43:55.162Z,30.45
2023-04-05T06:46:24.012Z,29.67
2023-04-05T06:48:53.972Z,24.70
2023-04-05T06:51:22.026Z,27.52
2023-04-05T06:53:49.908Z,30.25
2023-04-05T06:56:24.466Z,30.83
2023-04-05T06:58:56.304Z,35.38
2023-04-05T07:02:22.152Z,26.27
2023-04-05T07:04:55.050Z,25.80
2023-04-05T07:07:23.128Z,21.88
2023-04-05T07:09:52.607Z,29.92
2023-04-05T07:12:21.712Z,21.90
2023-04-05T07:15:16.113Z,29.17
2023-04-05T07:17:51.620Z,23.55
2023-04-05T07:20:20.410Z,27.77
2023-04-05T07:23:15.698Z,27.00
2023-04-05T07:25:46.146Z,25.50
2023-04-05T07:28:16.418Z,34.47
2023-04-05T07:30:48.963Z,26.05
2023-04-05T07:33:18.757Z,25.75
2023-04-05T07:35:57.678Z,23.38
2023-04-05T07:38:31.121Z,15.98
2023-04-05T07:40:59.817Z,17.75
2023-04-05T07:43:31.192Z,22.65
2023-04-05T07:46:04.634Z,23.30
2023-04-05T07:48:36.883Z,27.83
2023-04-05T07:51:12.415Z,22.10
2023-04-05T07:57:43.428Z,23.00
2023-04-05T08:00:16.498Z,23.80
2023-04-05T08:02:51.385Z,17.25
2023-04-05T08:05:19.709Z,21.02
2023-04-05T08:07:47.654Z,23.80
2023-04-05T08:10:20.528Z,19.67
2023-04-05T08:12:55.504Z,17.33
2023-04-05T08:15:27.203Z,19.90
2023-04-05T08:18:12.971Z,18.10
2023-04-05T08:21:04.829Z,19.52
2023-04-05T08:30:19.750Z,22.98
2023-04-05T08:32:51.102Z,17.83
2023-04-05T08:35:22.095Z,20.52
2023-04-05T08:37:51.423Z,21.27
2023-04-05T08:42:13.520Z,19.67
2023-04-05T08:44:46.082Z,26.40
2023-04-05T08:47:37.418Z,21.92
2023-04-05T08:50:10.851Z,18.13
2023-04-05T08:52:46.387Z,26.60
2023-04-05T08:55:28.892Z,16.67
2023-04-05T08:57:59.282Z,15.20
2023-04-05T09:00:35.079Z,11.75
2023-04-05T09:04:38.958Z,14.73
2023-04-05T09:07:45.676Z,14.38
2023-04-05T09:11:09.394Z,16.02
2023-04-05T09:14:43.104Z,15.32
2023-04-05T09:18:15.523Z,18.05
2023-04-05T09:21:28.198Z,20.45
2023-04-05T09:24:11.833Z,21.40
2023-04-05T09:27:19.818Z,25.73
2023-04-05T09:30:18.482Z,26.50
2023-04-05T09:32:55.381Z,18.60
2023-04-05T09:40:27.924Z,21.50
2023-04-05T09:42:58.125Z,24.58
2023-04-05T09:45:50.381Z,19.35
2023-04-05T09:48:39.408Z,22.83
2023-04-05T09:51:13.120Z,24.63
2023-04-05T09:54:00.039Z,17.90
2023-04-05T09:56:30.824Z,27.38
2023-04-05T09:59:01.736Z,21.52
2023-04-05T10:01:41.413Z,23.85
2023-04-05T10:04:12.954Z,17.45
2023-04-05T10:06:42.506Z,18.05
2023-04-05T10:09:11.864Z,13.73
2023-04-05T10:11:43.150Z,16.23
2023-04-05T10:14:12.931Z,19.65
2023-04-05T10:17:02.028Z,16.70
2023-04-05T10:20:11.387Z,16.13
2023-04-05T10:22:45.774Z,19.23
2023-04-05T10:25:46.075Z,14.43
2023-04-05T10:28:37.991Z,16.25
2023-04-05T10:31:37.662Z,12.30
2023-04-05T10:34:19.209Z,12.35
2023-04-05T10:36:51.238Z,15.63
2023-04-05T10:39:25.151Z,11.93
2023-04-05T10:41:54.956Z,8.90
2023-04-05T10:44:26.649Z,14.10
2023-04-05T10:46:55.688Z,19.95
2023-04-05T10:49:33.838Z,13.32
2023-04-05T10:52:12.828Z,15.02
2023-04-05T10:55:04.588Z,18.27
2023-04-05T10:57:33.217Z,16.35
2023-04-05T11:00:44.046Z,14.52
2023-04-05T11:12:49.058Z,22.15
2023-04-05T11:15:30.664Z,15.80
2023-04-05T11:18:18.472Z,11.90
2023-04-05T11:20:53.090Z,27.50
2023-04-05T11:23:25.950Z,22.65
2023-04-05T11:26:04.586Z,17.75
2023-04-05T11:28:40.881Z,22.70
2023-04-05T11:32:08.314Z,19.95
2023-04-05T11:35:32.960Z,22.67
2023-04-05T11:38:44.216Z,19.08
2023-04-05T11:41:18.041Z,28.63
2023-04-05T11:43:48.371Z,20.48
2023-04-05T11:46:18.445Z,26.95
2023-04-05T11:48:51.605Z,18.83
2023-04-05T11:51:19.568Z,20.77
2023-04-05T11:53:48.766Z,28.17
2023-04-05T11:56:19.232Z,19.42
2023-04-05T11:58:47.600Z,22.95
2023-04-05T12:01:18.883Z,29.00
2023-04-05T12:03:57.679Z,20.67
2023-04-05T12:06:28.777Z,24.90
2023-04-05T12:08:56.804Z,24.23
2023-04-05T12:11:27.351Z,26.98
2023-04-05T12:14:02.350Z,25.17
2023-04-05T12:17:02.521Z,22.83
2023-04-05T12:19:31.022Z,21.13
2023-04-05T12:22:04.444Z,22.17
2023-04-05T12:24:33.306Z,33.30
2023-04-05T12:27:03.146Z,22.88
2023-04-05T12:29:31.292Z,27.65
2023-04-05T12:31:59.367Z,30.40
2023-04-05T12:34:37.364Z,28.17
2023-04-05T12:37:07.276Z,30.00
2023-04-05T12:39:37.100Z,20.00
2023-04-05T12:42:06.005Z,20.77
2023-04-05T12:44:36.475Z,16.70
2023-04-05T12:47:25.079Z,22.20
2023-04-05T12:49:55.449Z,22.70
2023-04-05T12:52:29.930Z,28.85
2023-04-05T12:54:58.323Z,25.45
2023-04-05T12:57:31.490Z,46.10
2023-04-05T13:00:01.358Z,52.25
2023-04-05T13:02:41.660Z,75.10
2023-04-05T13:05:20.564Z,100.90
2023-04-05T13:07:51.481Z,102.05
2023-04-05T13:10:20.783Z,69.10
2023-04-05T13:12:54.273Z,65.50
2023-04-05T13:15:23.230Z,43.17
2023-04-05T13:18:32.583Z,35.33
2023-04-05T13:21:09.680Z,30.70
2023-04-05T13:23:40.595Z,25.33
2023-04-05T13:26:10.835Z,21.35
2023-04-05T13:28:40.611Z,24.63
2023-04-05T13:31:10.188Z,29.33
2023-04-05T13:33:41.873Z,25.88
2023-04-05T13:36:15.308Z,20.65
2023-04-05T13:38:44.522Z,39.65
2023-04-05T13:41:16.209Z,18.70
2023-04-05T13:44:06.472Z,18.90
2023-04-05T13:46:35.840Z,26.90
2023-04-05T13:49:04.154Z,31.60
2023-04-05T13:51:35.923Z,17.58
2023-04-05T13:54:04.285Z,28.20
2023-04-05T13:56:35.566Z,27.20
2023-04-05T13:59:04.924Z,26.75
2023-04-05T14:01:36.472Z,30.98
2023-04-05T14:04:09.411Z,22.90
2023-04-05T14:06:38.223Z,32.88
2023-04-05T14:09:08.691Z,30.80
2023-04-05T14:11:39.061Z,22.38
2023-04-05T14:14:07.249Z,26.85
2023-04-05T14:16:45.338Z,31.27
2023-04-05T14:19:13.466Z,28.95
2023-04-05T14:21:42.003Z,22.25
2023-04-05T14:24:13.862Z,21.95
2023-04-05T14:26:49.933Z,21.52
2023-04-05T14:29:20.474Z,33.30
2023-04-05T14:31:50.911Z,25.75
2023-04-05T14:34:21.616Z,13.77
2023-04-05T14:36:50.116Z,15.88
2023-04-05T14:39:19.411Z,12.57
2023-04-05T14:41:52.789Z,17.23
2023-04-05T14:44:27.747Z,17.52
2023-04-05T14:47:38.518Z,16.77
2023-04-05T14:50:08.619Z,12.40
2023-04-05T14:52:45.763Z,16.73
2023-04-05T14:55:14.929Z,15.23
2023-04-05T14:57:45.943Z,18.05
2023-04-05T15:00:14.842Z,25.15
2023-04-05T15:03:01.624Z,13.80
2023-04-05T15:05:32.853Z,14.55
2023-04-05T15:08:01.582Z,13.55
2023-04-05T15:10:39.930Z,14.35
2023-04-05T15:13:10.664Z,13.90
2023-04-05T15:15:39.591Z,12.65
2023-04-05T15:18:21.134Z,10.45
2023-04-05T15:20:52.107Z,15.40
2023-04-05T15:23:23.137Z,14.75
2023-04-05T15:25:51.371Z,15.38
2023-04-05T15:28:19.507Z,14.48
2023-04-05T15:30:51.353Z,18.75
2023-04-05T15:33:19.791Z,19.60
2023-04-05T15:35:48.240Z,31.58
2023-04-05T15:38:17.096Z,53.92
2023-04-05T15:40:49.213Z,74.20
2023-04-05T15:43:18.308Z,82.57
2023-04-05T15:45:46.340Z,78.63
2023-04-05T15:48:14.280Z,80.88
2023-04-05T15:50:43.397Z,85.07
2023-04-05T15:53:12.077Z,76.68
2023-04-05T15:55:40.171Z,77.68
2023-04-05T15:58:08.675Z,60.38
2023-04-05T16:00:38.647Z,59.05
2023-04-05T16:03:08.025Z,65.60
2023-04-05T16:05:36.697Z,70.30
2023-04-05T16:08:09.390Z,77.25
2023-04-05T16:10:37.949Z,78.55
2023-04-05T16:13:11.431Z,76.10
2023-04-05T16:15:42.596Z,71.55
2023-04-05T16:18:14.461Z,65.72
2023-04-05T16:20:48.594Z,60.17
2023-04-05T16:23:17.161Z,52.17
2023-04-05T16:25:47.448Z,61.97
2023-04-05T16:28:17.746Z,44.70
2023-04-05T16:30:48.328Z,38.47
2023-04-05T16:33:21.060Z,39.08
2023-04-05T16:35:50.677Z,37.75
2023-04-05T16:38:19.641Z,38.80
2023-04-05T16:40:49.109Z,56.13
2023-04-05T16:43:18.248Z,30.67
2023-04-05T16:45:49.772Z,59.22
2023-04-05T16:48:20.474Z,70.53
2023-04-05T16:50:51.460Z,109.22
2023-04-05T16:53:22.636Z,103.80
2023-04-05T16:56:03.494Z,101.00
2023-04-05T16:58:33.067Z,112.88
2023-04-05T17:01:05.002Z,111.45
2023-04-05T17:03:40.058Z,116.38
2023-04-05T17:06:08.718Z,100.32
2023-04-05T17:08:36.849Z,86.25
2023-04-05T17:11:11.600Z,72.85
2023-04-05T17:13:42.222Z,48.58
2023-04-05T17:16:14.738Z,44.40
2023-04-05T17:18:48.031Z,28.60
2023-04-05T17:21:25.554Z,32.38
2023-04-05T17:23:56.488Z,34.00
2023-04-05T17:26:29.538Z,43.67
2023-04-05T17:28:58.996Z,41.83
2023-04-05T17:31:28.342Z,40.03
2023-04-05T17:33:59.608Z,43.17
2023-04-05T17:36:30.619Z,43.97
2023-04-05T17:38:59.045Z,45.53
2023-04-05T17:41:28.316Z,45.20
2023-04-05T17:43:58.237Z,44.90
2023-04-05T17:46:40.165Z,40.00
2023-04-05T17:49:12.768Z,42.97
2023-04-05T17:51:42.047Z,44.63
2023-04-05T17:54:26.005Z,50.63
2023-04-05T17:57:06.184Z,47.08
2023-04-05T17:59:36.499Z,73.55
2023-04-05T18:02:04.732Z,73.63
2023-04-05T18:04:33.336Z,53.08
2023-04-05T18:07:37.702Z,51.22
2023-04-05T18:10:08.203Z,55.88
2023-04-05T18:12:40.908Z,61.95
2023-04-05T18:15:20.932Z,66.88
2023-04-05T18:17:58.959Z,83.25
2023-04-05T18:20:31.356Z,81.68
2023-04-05T18:23:09.334Z,89.88
2023-04-05T18:25:40.856Z,100.50
2023-04-05T18:28:22.610Z,112.40
2023-04-05T18:31:07.774Z,115.75
2023-04-05T18:33:45.068Z,123.15
2023-04-05T18:36:19.567Z,99.30
2023-04-05T18:38:47.749Z,76.30
2023-04-05T18:41:16.547Z,74.13
2023-04-05T18:43:44.802Z,56.20
2023-04-05T18:46:18.646Z,51.10
2023-04-05T18:48:54.795Z,37.45
2023-04-05T18:51:23.923Z,32.17
2023-04-05T18:53:55.045Z,30.63
2023-04-05T18:56:45.643Z,25.55
2023-04-05T18:59:17.472Z,22.40
2023-04-05T19:01:46.640Z,23.73
2023-04-05T19:04:16.593Z,23.02
2023-04-05T19:06:47.011Z,24.27
2023-04-05T19:09:17.309Z,22.45
2023-04-05T19:11:46.769Z,18.95
2023-04-05T19:14:16.391Z,19.38
2023-04-05T19:16:44.847Z,24.02
2023-04-05T19:19:13.053Z,31.48
2023-04-05T19:21:43.971Z,49.60
2023-04-05T19:24:14.856Z,35.28
2023-04-05T19:26:43.254Z,34.45
2023-04-05T19:29:12.074Z,30.38
2023-04-05T19:31:47.801Z,19.98
2023-04-05T19:34:37.132Z,16.40
2023-04-05T19:37:06.144Z,17.85
2023-04-05T19:39:34.617Z,18.60
2023-04-05T19:42:04.690Z,19.92
2023-04-05T19:44:40.082Z,15.57
2023-04-05T19:47:13.836Z,16.77
2023-04-05T19:49:44.698Z,18.70
2023-04-05T19:52:33.620Z,19.48
2023-04-05T19:55:25.894Z,20.80
2023-04-05T19:57:58.885Z,21.80
2023-04-05T20:00:31.547Z,28.08
2023-04-05T20:03:02.251Z,23.80
2023-04-05T20:06:03.965Z,21.33
2023-04-05T20:08:34.484Z,53.10
2023-04-05T20:11:07.940Z,31.40
2023-04-05T20:13:45.853Z,37.95
2023-04-05T20:16:14.584Z,31.80
2023-04-05T20:18:47.646Z,29.80
2023-04-05T20:21:21.604Z,26.40
2023-04-05T20:23:49.883Z,27.65
2023-04-05T20:26:18.982Z,26.45
2023-04-05T20:28:54.954Z,23.65
2023-04-05T20:31:24.119Z,28.10
2023-04-05T20:34:11.834Z,28.23
2023-04-05T20:36:47.250Z,24.40
2023-04-05T20:39:18.022Z,26.92
2023-04-05T20:44:46.762Z,23.40
2023-04-05T20:47:15.010Z,26.38
2023-04-05T20:49:43.170Z,24.23
2023-04-05T20:52:11.227Z,28.27
2023-04-05T20:54:39.820Z,21.17
2023-04-05T20:57:16.273Z,21.95
2023-04-05T20:59:45.998Z,19.08
2023-04-05T21:02:16.265Z,23.20
2023-04-05T21:04:46.492Z,21.05
2023-04-05T21:07:17.759Z,19.35
2023-04-05T21:09:46.479Z,19.40
2023-04-05T21:12:14.620Z,23.00
2023-04-05T21:14:45.735Z,19.83
2023-04-05T21:17:14.212Z,19.13
2023-04-05T21:19:42.720Z,17.25
2023-04-05T21:22:14.094Z,20.23
2023-04-05T21:24:44.173Z,21.05
2023-04-05T21:27:14.470Z,16.75
2023-04-05T21:29:45.687Z,22.15
2023-04-05T21:32:15.010Z,23.15
2023-04-05T21:34:44.926Z,19.50
2023-04-05T21:37:14.630Z,26.10
2023-04-05T21:39:42.726Z,27.60
2023-04-05T21:42:10.829Z,22.50
2023-04-05T21:44:39.733Z,33.80
2023-04-05T21:47:07.634Z,41.53
2023-04-05T21:49:41.056Z,33.42
2023-04-05T21:52:15.636Z,40.67
2023-04-05T21:54:44.810Z,49.53
2023-04-05T21:57:16.952Z,43.05
2023-04-05T21:59:45.159Z,38.78
2023-04-05T22:02:14.030Z,39.90
2023-04-05T22:04:43.987Z,36.45
2023-04-05T22:07:12.169Z,41.65
2023-04-05T22:09:41.013Z,38.22
2023-04-05T22:12:12.009Z,44.53
2023-04-05T22:14:42.092Z,49.35
2023-04-05T22:17:10.133Z,59.90
2023-04-05T22:19:44.104Z,60.22
2023-04-05T22:22:14.302Z,58.80
2023-04-05T22:24:42.759Z,57.03
2023-04-05T22:27:13.722Z,44.22
2023-04-05T22:29:41.843Z,33.45
2023-04-05T22:32:10.123Z,23.75
2023-04-05T22:34:38.823Z,23.35
2023-04-05T22:37:06.646Z,23.02
2023-04-05T22:39:34.990Z,22.23
2023-04-05T22:42:06.627Z,22.90
2023-04-05T22:44:36.340Z,24.05
2023-04-05T22:47:04.851Z,16.75
2023-04-05T22:49:37.636Z,24.55
2023-04-05T22:52:05.916Z,20.67
2023-04-05T22:54:34.681Z,18.30
2023-04-05T22:57:03.301Z,18.25
2023-04-05T22:59:31.997Z,21.90
2023-04-05T23:02:02.573Z,22.77
2023-04-05T23:04:34.161Z,27.63
2023-04-05T23:07:03.054Z,39.10
2023-04-05T23:09:31.661Z,33.15
2023-04-05T23:12:00.757Z,35.65
2023-04-05T23:14:29.499Z,46.35
2023-04-05T23:16:57.720Z,39.78
2023-04-05T23:19:26.454Z,54.72
2023-04-05T23:21:56.685Z,67.95
2023-04-05T23:24:25.618Z,84.13
2023-04-05T23:26:54.654Z,79.85
2023-04-05T23:29:26.493Z,76.38
2023-04-05T23:31:54.920Z,69.80
2023-04-05T23:34:23.789Z,64.82
2023-04-05T23:36:52.613Z,56.42
2023-04-05T23:39:21.238Z,48.03
2023-04-05T23:41:57.192Z,41.50
2023-04-05T23:44:27.264Z,42.72
2023-04-05T23:46:59.307Z,41.92
2023-04-05T23:49:29.125Z,59.13
2023-04-05T23:51:57.247Z,59.05
2023-04-05T23:54:32.314Z,46.70
2023-04-05T23:57:02.185Z,57.22
2023-04-05T23:59:31.038Z,67.75
